Terminal Aerodrome Forecast
Issued by NWS

Home | Current Version | Previous Version | Text Only | Print | Product List | Glossary On
Versions: 1 2 3 4 5 6 7 8 9 10 11 12 13 14 15 16 17
000
FTUS41 KRNK 261321 AAB
TAFBCB
TAF AMD
KBCB 261321Z 2613/2712 00000KT P6SM VCSH SCT050 OVC100
     FM261400 25006KT P6SM BKN060 OVC250
     FM261800 25007KT P6SM VCTS BKN050CB OVC150
     FM270200 23004KT P6SM SCT050 BKN090 BKN250
     FM270600 00000KT 5SM BR SCT004 BKN090 BKN250
      TEMPO 2708/2712 1/2SM FG VV002=

USA.gov is the U.S. government's official web portal to all federal, state and local government web resources and services.